Time;durP1;ratioP1;P1;durP2;ratioP2;P2;SDS_P1;SDS_P2;PMS_P1;PMS_P2;Temp;Humidity;BMP_temperature;BMP_pressure;BME280_temperature;BME280_humidity;BME280_pressure;Samples;Min_cycle;Max_cycle;Signal;HPM_P1;HPM_P2
2022/08/21 00:00:07;;;;;;;4.83;2.40;;;;;;;;;;5077837;28;20197;-80
2022/08/21 00:02:45;;;;;;;7.57;3.17;;;;;;;;;;5074483;28;20206;-80
2022/08/21 00:05:14;;;;;;;5.80;2.93;;;;;;;;;;5086605;28;20284;-80
2022/08/21 00:07:42;;;;;;;5.97;3.33;;;;;;;;;;5077399;28;20219;-80
2022/08/21 00:10:11;;;;;;;1.40;1.17;;;;;;;;;;5077386;28;20197;-79
2022/08/21 00:12:40;;;;;;;2.23;1.83;;;;;;;;;;5074280;28;20271;-80
2022/08/21 00:15:10;;;;;;;4.07;1.90;;;;;;;;;;5087599;28;20223;-80
2022/08/21 00:17:40;;;;;;;8.53;4.07;;;;;;;;;;5063385;28;20194;-80
2022/08/21 00:20:10;;;;;;;8.47;3.53;;;;;;;;;;5076722;28;20202;-80
2022/08/21 00:22:38;;;;;;;13.20;4.00;;;;;;;;;;5064363;28;20209;-80
2022/08/21 00:25:08;;;;;;;6.13;3.20;;;;;;;;;;5074554;28;20259;-80
2022/08/21 00:27:36;;;;;;;8.57;5.03;;;;;;;;;;5069062;28;20221;-80
2022/08/21 00:30:05;;;;;;;8.50;4.80;;;;;;;;;;5072613;28;20193;-80
2022/08/21 00:32:34;;;;;;;2.47;2.07;;;;;;;;;;5077266;28;20232;-80
2022/08/21 00:35:04;;;;;;;9.93;4.30;;;;;;;;;;5076846;28;20275;-80
2022/08/21 00:37:33;;;;;;;9.50;2.23;;;;;;;;;;5066560;28;20204;-80
2022/08/21 00:40:02;;;;;;;8.63;5.60;;;;;;;;;;5073895;28;20229;-80
2022/08/21 00:42:31;;;;;;;8.97;4.70;;;;;;;;;;5094678;28;20204;-80
2022/08/21 00:44:59;;;;;;;7.70;4.87;;;;;;;;;;5076760;28;20255;-80
2022/08/21 00:47:28;;;;;;;8.40;4.53;;;;;;;;;;5076645;28;20208;-80
2022/08/21 00:49:57;;;;;;;9.90;4.33;;;;;;;;;;5076555;28;20263;-79
2022/08/21 00:52:29;;;;;;;8.97;5.03;;;;;;;;;;5076652;28;20205;-79
2022/08/21 00:54:58;;;;;;;13.90;4.63;;;;;;;;;;5062781;28;20193;-79
2022/08/21 00:57:30;;;;;;;9.00;4.30;;;;;;;;;;5072863;28;20271;-79
2022/08/21 01:00:00;;;;;;;7.37;4.03;;;;;;;;;;5082814;28;20205;-79
2022/08/21 01:02:29;;;;;;;4.23;3.03;;;;;;;;;;5075290;28;20202;-80
2022/08/21 01:04:58;;;;;;;4.67;3.70;;;;;;;;;;5076275;28;20292;-79
2022/08/21 01:07:28;;;;;;;9.03;3.13;;;;;;;;;;5075692;28;20220;-80
2022/08/21 01:09:56;;;;;;;7.37;2.83;;;;;;;;;;5083967;28;20218;-80
2022/08/21 01:12:25;;;;;;;8.57;3.20;;;;;;;;;;5091395;28;20219;-80
2022/08/21 01:14:53;;;;;;;7.47;3.10;;;;;;;;;;5093298;28;20197;-80
2022/08/21 01:17:22;;;;;;;5.70;3.47;;;;;;;;;;5076076;28;20265;-80
2022/08/21 01:19:50;;;;;;;9.23;3.40;;;;;;;;;;5076271;28;20240;-80
2022/08/21 01:22:20;;;;;;;7.20;3.60;;;;;;;;;;5062534;28;20203;-80
2022/08/21 01:24:49;;;;;;;7.27;3.30;;;;;;;;;;5072395;28;20208;-80
2022/08/21 01:27:18;;;;;;;4.53;2.50;;;;;;;;;;5055516;28;20202;-80
2022/08/21 01:29:48;;;;;;;2.33;1.97;;;;;;;;;;5068633;28;20209;-80
2022/08/21 01:32:18;;;;;;;10.73;4.23;;;;;;;;;;5092472;28;20200;-80
2022/08/21 01:34:48;;;;;;;5.53;2.90;;;;;;;;;;5092942;28;20232;-80
2022/08/21 01:37:17;;;;;;;7.53;3.40;;;;;;;;;;5080563;28;20201;-80
2022/08/21 01:39:47;;;;;;;6.03;3.63;;;;;;;;;;5075523;28;20197;-80
2022/08/21 01:42:15;;;;;;;12.97;3.83;;;;;;;;;;5075381;28;20209;-80
2022/08/21 01:44:44;;;;;;;4.00;2.80;;;;;;;;;;5062409;28;20198;-80
2022/08/21 01:47:13;;;;;;;5.60;3.23;;;;;;;;;;5075815;28;20208;-80
2022/08/21 01:49:45;;;;;;;8.60;3.00;;;;;;;;;;5075465;28;20268;-79
2022/08/21 01:52:13;;;;;;;5.80;3.90;;;;;;;;;;5071963;28;20262;-80
2022/08/21 01:54:43;;;;;;;6.30;3.70;;;;;;;;;;5059418;28;20201;-79
2022/08/21 01:57:16;;;;;;;6.70;2.13;;;;;;;;;;5075210;28;20205;-80
2022/08/21 01:59:44;;;;;;;9.50;2.93;;;;;;;;;;5061690;28;20196;-80
2022/08/21 02:02:12;;;;;;;1.20;1.10;;;;;;;;;;5093048;28;20197;-80
2022/08/21 02:04:41;;;;;;;4.00;2.47;;;;;;;;;;5058406;28;20251;-80
2022/08/21 02:07:12;;;;;;;6.47;3.13;;;;;;;;;;5055435;28;20206;-80
2022/08/21 02:09:41;;;;;;;10.97;4.23;;;;;;;;;;5093320;28;20213;-80
2022/08/21 02:12:10;;;;;;;4.83;3.63;;;;;;;;;;5075178;28;20209;-80
2022/08/21 02:14:40;;;;;;;7.30;3.60;;;;;;;;;;5092640;28;20209;-80
2022/08/21 02:17:08;;;;;;;8.13;1.73;;;;;;;;;;5092909;28;20207;-80
2022/08/21 02:19:37;;;;;;;8.00;2.67;;;;;;;;;;5072016;28;20208;-80
2022/08/21 02:22:08;;;;;;;8.87;4.00;;;;;;;;;;5086441;28;20265;-80
2022/08/21 02:24:37;;;;;;;14.53;4.60;;;;;;;;;;5083417;28;20251;-80
2022/08/21 02:27:22;;;;;;;6.50;4.10;;;;;;;;;;5067081;28;20189;-80
2022/08/21 02:29:56;;;;;;;6.67;3.70;;;;;;;;;;5084414;28;20252;-80
2022/08/21 02:32:25;;;;;;;8.80;3.80;;;;;;;;;;5086274;28;20212;-80
2022/08/21 02:34:54;;;;;;;6.77;3.27;;;;;;;;;;5093216;28;20277;-80
2022/08/21 02:37:22;;;;;;;12.53;4.60;;;;;;;;;;5084293;28;20199;-80
2022/08/21 02:39:51;;;;;;;11.97;4.33;;;;;;;;;;5093196;28;20207;-80
2022/08/21 02:42:19;;;;;;;9.03;4.23;;;;;;;;;;5074744;28;20208;-80
2022/08/21 02:44:48;;;;;;;6.13;3.93;;;;;;;;;;5071239;28;20212;-80
2022/08/21 02:47:17;;;;;;;8.33;5.80;;;;;;;;;;5067310;28;20209;-80
2022/08/21 02:49:46;;;;;;;9.00;4.73;;;;;;;;;;5055804;28;20235;-80
2022/08/21 02:52:14;;;;;;;12.77;6.27;;;;;;;;;;5068728;28;20197;-80
2022/08/21 02:54:43;;;;;;;11.23;6.63;;;;;;;;;;5080285;28;20212;-80
2022/08/21 02:57:11;;;;;;;9.30;4.43;;;;;;;;;;5071706;28;20204;-80
2022/08/21 02:59:40;;;;;;;8.47;5.30;;;;;;;;;;5093077;28;20254;-80
2022/08/21 03:02:09;;;;;;;7.60;3.63;;;;;;;;;;5059582;28;20220;-80
2022/08/21 03:04:38;;;;;;;8.73;5.40;;;;;;;;;;5070208;28;20202;-79
2022/08/21 03:07:13;;;;;;;7.03;4.37;;;;;;;;;;5065384;28;20202;-79
2022/08/21 03:09:41;;;;;;;8.60;4.43;;;;;;;;;;5057974;28;20258;-80
2022/08/21 03:12:23;;;;;;;13.50;3.93;;;;;;;;;;5062637;28;20225;-80
2022/08/21 03:14:53;;;;;;;20.17;5.43;;;;;;;;;;5061372;28;20265;-80
2022/08/21 03:17:22;;;;;;;10.17;5.17;;;;;;;;;;5093209;28;20215;-80
2022/08/21 03:19:58;;;;;;;8.80;3.90;;;;;;;;;;5079949;28;20263;-80
2022/08/21 03:22:27;;;;;;;10.83;4.27;;;;;;;;;;5090938;28;20209;-80
2022/08/21 03:24:59;;;;;;;8.47;4.77;;;;;;;;;;5096033;28;20365;-79
2022/08/21 03:27:27;;;;;;;8.23;3.50;;;;;;;;;;5095933;28;20291;-80
2022/08/21 03:29:57;;;;;;;4.37;2.87;;;;;;;;;;5078472;28;20220;-79
2022/08/21 03:32:25;;;;;;;10.03;5.13;;;;;;;;;;5079383;28;20262;-79
2022/08/21 03:34:54;;;;;;;8.27;4.07;;;;;;;;;;5086798;28;20227;-79
2022/08/21 03:37:24;;;;;;;7.73;4.17;;;;;;;;;;5074127;28;20205;-79
2022/08/21 03:39:52;;;;;;;5.77;3.90;;;;;;;;;;5058335;28;20198;-80
2022/08/21 03:42:21;;;;;;;10.20;5.10;;;;;;;;;;5062446;28;20224;-79
2022/08/21 03:44:49;;;;;;;13.50;3.63;;;;;;;;;;5077531;28;20213;-80
2022/08/21 03:47:18;;;;;;;6.13;4.17;;;;;;;;;;5059750;28;20213;-80
2022/08/21 03:49:46;;;;;;;6.80;4.03;;;;;;;;;;5088047;28;20232;-80
2022/08/21 03:52:15;;;;;;;11.00;5.27;;;;;;;;;;5095551;28;20201;-80
2022/08/21 03:54:46;;;;;;;7.67;4.77;;;;;;;;;;5057686;28;20240;-80
2022/08/21 03:57:15;;;;;;;7.47;1.97;;;;;;;;;;5064962;28;20229;-79
2022/08/21 03:59:43;;;;;;;8.93;4.40;;;;;;;;;;5095340;28;20234;-79
2022/08/21 04:02:12;;;;;;;3.57;2.87;;;;;;;;;;5074011;28;20190;-80
2022/08/21 04:04:41;;;;;;;8.63;4.07;;;;;;;;;;5058853;28;20205;-80
2022/08/21 04:07:09;;;;;;;8.77;4.60;;;;;;;;;;5087221;28;20246;-80
2022/08/21 04:09:37;;;;;;;4.80;3.10;;;;;;;;;;5073052;28;20200;-80
2022/08/21 04:12:07;;;;;;;8.00;4.17;;;;;;;;;;5084841;28;20213;-80
2022/08/21 04:14:36;;;;;;;7.03;3.20;;;;;;;;;;5073985;28;20215;-80
2022/08/21 04:17:05;;;;;;;7.33;2.77;;;;;;;;;;5074130;28;20205;-80
2022/08/21 04:19:33;;;;;;;5.70;4.37;;;;;;;;;;5070157;28;20220;-80
2022/08/21 04:22:01;;;;;;;4.83;2.90;;;;;;;;;;5085908;28;20200;-80
2022/08/21 04:24:30;;;;;;;9.33;4.57;;;;;;;;;;5064068;28;20262;-80
2022/08/21 04:26:58;;;;;;;3.57;3.10;;;;;;;;;;5077016;28;20200;-79
2022/08/21 04:29:28;;;;;;;7.40;3.20;;;;;;;;;;5057434;28;20197;-80
2022/08/21 04:31:57;;;;;;;5.83;2.83;;;;;;;;;;5069565;28;20219;-79
2022/08/21 04:34:25;;;;;;;5.90;3.43;;;;;;;;;;5057630;28;20201;-80
2022/08/21 04:36:53;;;;;;;3.43;2.67;;;;;;;;;;5066735;28;20209;-80
2022/08/21 04:39:22;;;;;;;10.20;3.93;;;;;;;;;;5094594;28;20222;-79
2022/08/21 04:41:56;;;;;;;6.33;4.00;;;;;;;;;;5063587;28;20204;-80
2022/08/21 04:44:25;;;;;;;7.73;3.90;;;;;;;;;;5077367;28;20201;-79
2022/08/21 04:46:55;;;;;;;7.30;4.77;;;;;;;;;;5075719;28;20240;-80
2022/08/21 04:49:23;;;;;;;9.63;4.40;;;;;;;;;;5067877;28;20207;-80
2022/08/21 04:51:51;;;;;;;15.50;6.17;;;;;;;;;;5088997;28;20224;-79
2022/08/21 04:54:22;;;;;;;5.63;3.93;;;;;;;;;;5076419;28;20204;-79
2022/08/21 04:56:51;;;;;;;9.03;2.03;;;;;;;;;;5075087;28;20196;-80
2022/08/21 04:59:27;;;;;;;9.97;3.80;;;;;;;;;;5076441;28;20190;-80
2022/08/21 05:01:57;;;;;;;6.83;3.70;;;;;;;;;;5074990;28;20226;-79
2022/08/21 05:04:28;;;;;;;7.80;3.43;;;;;;;;;;5072097;28;20205;-79
2022/08/21 05:06:59;;;;;;;8.27;4.43;;;;;;;;;;5060797;28;20267;-80
2022/08/21 05:09:28;;;;;;;7.87;3.70;;;;;;;;;;5068217;28;20213;-80
2022/08/21 05:11:57;;;;;;;3.87;2.57;;;;;;;;;;5076376;28;20214;-80
2022/08/21 05:14:27;;;;;;;8.87;3.87;;;;;;;;;;5076022;28;20204;-80
2022/08/21 05:16:55;;;;;;;8.77;4.17;;;;;;;;;;5076453;28;20257;-80
2022/08/21 05:19:25;;;;;;;11.20;4.13;;;;;;;;;;5075961;28;20196;-80
2022/08/21 05:21:54;;;;;;;10.97;4.50;;;;;;;;;;5093586;28;20203;-80
2022/08/21 05:24:22;;;;;;;9.77;4.30;;;;;;;;;;5093908;28;20192;-80
2022/08/21 05:26:50;;;;;;;6.43;2.87;;;;;;;;;;5072617;28;20205;-80
2022/08/21 05:29:19;;;;;;;8.60;4.60;;;;;;;;;;5087386;28;20198;-80
2022/08/21 05:31:49;;;;;;;10.03;4.60;;;;;;;;;;5085897;28;20213;-80
2022/08/21 05:34:19;;;;;;;2.77;2.10;;;;;;;;;;5093534;28;20196;-80
2022/08/21 05:36:49;;;;;;;8.40;4.60;;;;;;;;;;5074705;28;20206;-80
2022/08/21 05:39:17;;;;;;;7.80;4.17;;;;;;;;;;5085898;28;20204;-80
2022/08/21 05:41:46;;;;;;;10.03;3.67;;;;;;;;;;5065983;28;20200;-80
2022/08/21 05:44:14;;;;;;;37.47;4.00;;;;;;;;;;5059312;28;20204;-80
2022/08/21 05:46:42;;;;;;;5.70;2.60;;;;;;;;;;5056063;28;20235;-79
2022/08/21 05:49:12;;;;;;;6.27;3.53;;;;;;;;;;5067967;28;20289;-80
2022/08/21 05:51:41;;;;;;;17.90;4.20;;;;;;;;;;5057176;28;20222;-80
2022/08/21 05:54:11;;;;;;;9.87;4.37;;;;;;;;;;5076102;28;20201;-80
2022/08/21 05:56:39;;;;;;;9.97;4.53;;;;;;;;;;5062557;28;20208;-80
2022/08/21 05:59:07;;;;;;;9.80;3.87;;;;;;;;;;5075130;28;20265;-80
2022/08/21 06:01:36;;;;;;;7.33;3.73;;;;;;;;;;5092751;28;20192;-80
2022/08/21 06:04:05;;;;;;;12.57;5.33;;;;;;;;;;5065355;28;20209;-80
2022/08/21 06:06:33;;;;;;;13.27;4.30;;;;;;;;;;5069423;28;20217;-79
2022/08/21 06:09:02;;;;;;;9.00;3.90;;;;;;;;;;5063270;28;20202;-80
2022/08/21 06:11:33;;;;;;;12.43;5.00;;;;;;;;;;5086529;28;20217;-79
2022/08/21 06:14:02;;;;;;;8.43;4.20;;;;;;;;;;5067657;28;20243;-79
2022/08/21 06:16:30;;;;;;;14.57;4.87;;;;;;;;;;5055983;28;20214;-80
2022/08/21 06:18:59;;;;;;;17.20;4.53;;;;;;;;;;5068432;28;20201;-80
2022/08/21 06:21:30;;;;;;;8.20;4.20;;;;;;;;;;5062379;28;20201;-80
2022/08/21 06:23:59;;;;;;;5.37;2.63;;;;;;;;;;5075236;28;20196;-80
2022/08/21 06:26:28;;;;;;;11.70;4.10;;;;;;;;;;5067579;28;20201;-80
2022/08/21 06:28:59;;;;;;;11.13;4.77;;;;;;;;;;5088022;28;20203;-80
2022/08/21 06:31:28;;;;;;;9.30;4.30;;;;;;;;;;5066592;28;20213;-80
2022/08/21 06:33:57;;;;;;;13.27;3.17;;;;;;;;;;5067908;28;20256;-80
2022/08/21 06:36:25;;;;;;;17.83;6.27;;;;;;;;;;5069069;28;20218;-80
2022/08/21 06:38:54;;;;;;;11.23;4.73;;;;;;;;;;5079076;28;20204;-80
2022/08/21 06:41:25;;;;;;;2.60;1.73;;;;;;;;;;5072125;28;20202;-80
2022/08/21 06:43:54;;;;;;;10.53;4.43;;;;;;;;;;5068269;28;20202;-80
2022/08/21 06:46:25;;;;;;;14.30;4.43;;;;;;;;;;5075151;28;20235;-80
2022/08/21 06:48:53;;;;;;;5.73;2.97;;;;;;;;;;5093149;28;20243;-80
2022/08/21 06:51:22;;;;;;;5.57;3.80;;;;;;;;;;5075498;28;20217;-80
2022/08/21 06:53:50;;;;;;;10.60;4.77;;;;;;;;;;5078591;28;20201;-80
2022/08/21 06:56:19;;;;;;;9.13;4.70;;;;;;;;;;5065761;28;20202;-80
2022/08/21 06:58:47;;;;;;;8.53;3.97;;;;;;;;;;5062349;28;20205;-80
2022/08/21 07:01:15;;;;;;;9.20;4.23;;;;;;;;;;5090415;28;20240;-80
2022/08/21 07:03:45;;;;;;;11.90;4.10;;;;;;;;;;5071250;28;20202;-80
2022/08/21 07:06:14;;;;;;;6.83;3.57;;;;;;;;;;5088907;28;20284;-80
2022/08/21 07:08:42;;;;;;;8.13;3.90;;;;;;;;;;5076865;28;20192;-80
2022/08/21 07:11:12;;;;;;;12.63;4.33;;;;;;;;;;5073793;28;20208;-80
2022/08/21 07:13:41;;;;;;;6.77;4.07;;;;;;;;;;5069529;28;20198;-80
2022/08/21 07:16:10;;;;;;;9.63;4.47;;;;;;;;;;5074161;28;20234;-80
2022/08/21 07:18:38;;;;;;;12.03;5.80;;;;;;;;;;5075281;28;20196;-80
2022/08/21 07:21:08;;;;;;;8.80;4.03;;;;;;;;;;5089708;28;20232;-80
2022/08/21 07:23:39;;;;;;;6.57;1.57;;;;;;;;;;5059209;28;20205;-80
2022/08/21 07:26:07;;;;;;;1.03;0.97;;;;;;;;;;5076403;28;20195;-80
2022/08/21 07:28:37;;;;;;;5.10;2.67;;;;;;;;;;5066443;28;20246;-80
2022/08/21 07:31:05;;;;;;;4.07;1.50;;;;;;;;;;5077813;28;20196;-80
2022/08/21 07:33:35;;;;;;;7.73;3.33;;;;;;;;;;5096537;28;20214;-80
2022/08/21 07:36:04;;;;;;;8.43;2.90;;;;;;;;;;5083103;28;20221;-80
2022/08/21 07:38:34;;;;;;;7.73;3.07;;;;;;;;;;5071466;28;20213;-80
2022/08/21 07:41:03;;;;;;;11.93;4.40;;;;;;;;;;5061829;28;20224;-80
2022/08/21 07:43:31;;;;;;;10.63;3.97;;;;;;;;;;5089314;28;20256;-80
2022/08/21 07:46:00;;;;;;;10.47;4.50;;;;;;;;;;5066361;28;20236;-80
2022/08/21 07:48:28;;;;;;;9.77;3.43;;;;;;;;;;5078073;28;20208;-80
2022/08/21 07:50:57;;;;;;;1.60;1.50;;;;;;;;;;5078174;28;20289;-80
2022/08/21 07:53:25;;;;;;;5.00;1.17;;;;;;;;;;5077748;28;20217;-80
2022/08/21 07:55:58;;;;;;;4.50;1.57;;;;;;;;;;5086635;28;20196;-80
2022/08/21 07:58:27;;;;;;;2.90;1.00;;;;;;;;;;5071871;28;20211;-80
2022/08/21 08:00:55;;;;;;;5.50;2.30;;;;;;;;;;5058345;28;20294;-81
2022/08/21 08:03:24;;;;;;;3.17;1.30;;;;;;;;;;5093108;28;20219;-80
2022/08/21 08:05:56;;;;;;;8.53;2.93;;;;;;;;;;5077950;28;20194;-81
2022/08/21 08:08:25;;;;;;;4.63;1.40;;;;;;;;;;5095250;28;20207;-81
2022/08/21 08:10:55;;;;;;;4.23;2.63;;;;;;;;;;5095596;28;20202;-80
2022/08/21 08:13:23;;;;;;;4.53;2.57;;;;;;;;;;5094076;28;20247;-81
2022/08/21 08:15:52;;;;;;;1.10;1.00;;;;;;;;;;5064091;28;20198;-80
2022/08/21 08:18:20;;;;;;;4.03;2.20;;;;;;;;;;5077805;28;20244;-80
2022/08/21 08:20:49;;;;;;;1.10;0.93;;;;;;;;;;5075145;28;20213;-81
2022/08/21 08:23:19;;;;;;;2.03;0.70;;;;;;;;;;5077662;28;20203;-80
2022/08/21 08:25:48;;;;;;;2.30;2.20;;;;;;;;;;5075915;28;20231;-80
2022/08/21 08:28:18;;;;;;;0.70;0.70;;;;;;;;;;5077312;28;20213;-80
2022/08/21 08:30:46;;;;;;;1.80;1.23;;;;;;;;;;5076723;28;20229;-80
2022/08/21 08:33:16;;;;;;;5.03;1.00;;;;;;;;;;5085322;28;20301;-80
2022/08/21 08:35:47;;;;;;;6.13;1.80;;;;;;;;;;5074283;28;20301;-80
2022/08/21 08:38:18;;;;;;;2.67;1.37;;;;;;;;;;5066568;28;20204;-80
2022/08/21 08:40:52;;;;;;;26.53;1.20;;;;;;;;;;5062099;28;20283;-80
2022/08/21 08:43:22;;;;;;;7.40;2.43;;;;;;;;;;5073817;28;20195;-80
2022/08/21 08:45:52;;;;;;;1.30;0.77;;;;;;;;;;5063799;28;20237;-80
2022/08/21 08:48:33;;;;;;;4.77;1.83;;;;;;;;;;5063758;28;20202;-80
2022/08/21 08:51:02;;;;;;;13.00;1.80;;;;;;;;;;5094907;28;20204;-81
2022/08/21 08:53:33;;;;;;;6.17;1.60;;;;;;;;;;5094221;28;20216;-81
2022/08/21 08:56:03;;;;;;;7.17;2.13;;;;;;;;;;5093705;28;20237;-80
2022/08/21 08:58:34;;;;;;;7.73;2.43;;;;;;;;;;5094316;28;20199;-80
2022/08/21 09:01:03;;;;;;;2.07;1.57;;;;;;;;;;5076491;28;20205;-80
2022/08/21 09:03:31;;;;;;;2.63;1.90;;;;;;;;;;5076353;28;20212;-80
2022/08/21 09:06:05;;;;;;;4.17;1.37;;;;;;;;;;5076512;28;20224;-80
2022/08/21 09:08:44;;;;;;;4.73;1.80;;;;;;;;;;5073397;28;20196;-81
2022/08/21 09:11:17;;;;;;;0.57;0.57;;;;;;;;;;5089888;28;20254;-80
2022/08/21 09:13:52;;;;;;;3.23;1.93;;;;;;;;;;5066256;28;20217;-80
2022/08/21 09:16:24;;;;;;;5.80;2.50;;;;;;;;;;5070755;28;20208;-80
2022/08/21 09:18:57;;;;;;;7.30;1.33;;;;;;;;;;5086112;28;20200;-80
2022/08/21 09:21:28;;;;;;;5.77;1.50;;;;;;;;;;5074059;28;20191;-80
2022/08/21 09:23:59;;;;;;;2.90;1.47;;;;;;;;;;5070460;28;20191;-80
2022/08/21 09:26:28;;;;;;;4.17;2.07;;;;;;;;;;5069881;28;20201;-80
2022/08/21 09:29:00;;;;;;;0.73;0.73;;;;;;;;;;5089954;28;20230;-80
2022/08/21 09:31:29;;;;;;;2.00;1.10;;;;;;;;;;5077046;28;20227;-80
2022/08/21 09:34:02;;;;;;;2.93;2.73;;;;;;;;;;5062791;28;20227;-80
2022/08/21 09:36:34;;;;;;;4.80;1.50;;;;;;;;;;5092445;28;20226;-80
2022/08/21 09:39:04;;;;;;;0.80;0.80;;;;;;;;;;5079719;28;20256;-80
2022/08/21 09:41:35;;;;;;;1.33;1.23;;;;;;;;;;5072863;28;20253;-80
2022/08/21 09:44:05;;;;;;;2.53;1.10;;;;;;;;;;5092232;28;20204;-80
2022/08/21 09:46:35;;;;;;;2.57;1.50;;;;;;;;;;5075569;28;20236;-80
2022/08/21 09:49:05;;;;;;;6.17;3.20;;;;;;;;;;5058342;28;20241;-80
2022/08/21 09:51:38;;;;;;;4.10;1.97;;;;;;;;;;5093262;28;20214;-80
2022/08/21 09:54:15;;;;;;;1.87;1.67;;;;;;;;;;5067548;28;20268;-80
2022/08/21 09:59:41;;;;;;;3.73;0.80;;;;;;;;;;5069577;28;20192;-80
2022/08/21 10:02:23;;;;;;;7.17;1.70;;;;;;;;;;5071980;28;20189;-80
2022/08/21 10:04:52;;;;;;;3.20;0.70;;;;;;;;;;5059646;28;20203;-83
2022/08/21 10:07:21;;;;;;;2.43;1.23;;;;;;;;;;5094397;28;20199;-80
2022/08/21 10:09:59;;;;;;;2.50;1.20;;;;;;;;;;5060117;28;20231;-81
2022/08/21 10:12:32;;;;;;;3.40;1.37;;;;;;;;;;5074230;28;20222;-80
2022/08/21 10:15:08;;;;;;;1.43;0.67;;;;;;;;;;5091867;28;20214;-80
2022/08/21 10:17:39;;;;;;;1.23;1.07;;;;;;;;;;5074159;28;20201;-81
2022/08/21 10:20:13;;;;;;;6.33;2.60;;;;;;;;;;5056336;28;20204;-80
2022/08/21 10:22:45;;;;;;;1.70;1.17;;;;;;;;;;5069502;28;20199;-81
2022/08/21 10:25:19;;;;;;;1.43;1.33;;;;;;;;;;5084716;28;20198;-81
2022/08/21 10:27:53;;;;;;;2.63;1.00;;;;;;;;;;5095781;28;20228;-81
2022/08/21 10:30:29;;;;;;;2.80;1.00;;;;;;;;;;5097468;28;20198;-81
2022/08/21 10:33:13;;;;;;;1.87;1.50;;;;;;;;;;5066969;28;20289;-81
2022/08/21 10:35:44;;;;;;;0.60;0.60;;;;;;;;;;5092599;28;20230;-81
2022/08/21 10:38:35;;;;;;;3.40;1.60;;;;;;;;;;5068793;28;20198;-80
2022/08/21 10:41:23;;;;;;;7.47;1.20;;;;;;;;;;5087662;28;20191;-81
2022/08/21 10:43:53;;;;;;;6.93;1.43;;;;;;;;;;5097768;28;20206;-80
2022/08/21 10:46:38;;;;;;;1.77;1.53;;;;;;;;;;5079037;28;20231;-80
2022/08/21 10:49:15;;;;;;;5.00;1.17;;;;;;;;;;5065782;28;20198;-80
2022/08/21 10:51:48;;;;;;;2.47;1.93;;;;;;;;;;5065987;28;20196;-80
2022/08/21 10:54:20;;;;;;;2.63;1.50;;;;;;;;;;5069650;28;20218;-79
2022/08/21 10:56:53;;;;;;;1.17;1.17;;;;;;;;;;5075940;28;20193;-80
2022/08/21 10:59:26;;;;;;;5.53;1.50;;;;;;;;;;5075233;28;20203;-79
2022/08/21 11:01:59;;;;;;;2.57;1.53;;;;;;;;;;5064612;28;20201;-80
2022/08/21 11:04:31;;;;;;;2.97;1.27;;;;;;;;;;5065412;28;20248;-80
2022/08/21 11:07:20;;;;;;;3.87;1.47;;;;;;;;;;5059728;28;20228;-81
2022/08/21 11:09:49;;;;;;;2.07;1.90;;;;;;;;;;5063183;28;20194;-81
2022/08/21 11:12:22;;;;;;;1.50;1.03;;;;;;;;;;5068191;28;20233;-83
2022/08/21 11:14:57;;;;;;;9.83;1.63;;;;;;;;;;5074790;28;20304;-81
2022/08/21 11:17:32;;;;;;;3.63;1.77;;;;;;;;;;5058939;28;20260;-81
2022/08/21 11:20:04;;;;;;;0.87;0.63;;;;;;;;;;5078923;28;20234;-82
2022/08/21 11:22:35;;;;;;;1.00;1.00;;;;;;;;;;5078533;28;20200;-82
2022/08/21 11:25:08;;;;;;;0.83;0.83;;;;;;;;;;5096407;28;20196;-82
2022/08/21 11:27:39;;;;;;;2.97;1.30;;;;;;;;;;5095594;28;20197;-83
2022/08/21 11:30:08;;;;;;;0.87;0.87;;;;;;;;;;5078940;28;20201;-82
2022/08/21 11:32:44;;;;;;;0.53;0.53;;;;;;;;;;5095818;28;20265;-82
2022/08/21 11:35:19;;;;;;;1.50;0.87;;;;;;;;;;5078382;28;20230;-82
2022/08/21 11:37:53;;;;;;;1.23;1.20;;;;;;;;;;5070224;28;20215;-82
2022/08/21 11:40:38;;;;;;;8.43;1.83;;;;;;;;;;5090546;28;20258;-82
2022/08/21 11:43:11;;;;;;;1.23;1.13;;;;;;;;;;5078694;28;20201;-82
2022/08/21 11:45:44;;;;;;;2.00;1.90;;;;;;;;;;5077903;28;20278;-82
2022/08/21 11:48:18;;;;;;;0.57;0.57;;;;;;;;;;5078180;28;20205;-83
2022/08/21 11:50:46;;;;;;;4.33;2.20;;;;;;;;;;5074841;28;20281;-82
2022/08/21 11:53:17;;;;;;;1.07;0.50;;;;;;;;;;5058986;28;20228;-82
2022/08/21 11:55:48;;;;;;;0.63;0.63;;;;;;;;;;5078229;28;20245;-82
2022/08/21 11:58:19;;;;;;;6.03;1.60;;;;;;;;;;5095322;28;20263;-83
2022/08/21 12:00:50;;;;;;;1.37;1.37;;;;;;;;;;5067411;28;20262;-82
2022/08/21 12:03:28;;;;;;;2.13;1.23;;;;;;;;;;5087707;28;20208;-82
2022/08/21 12:05:58;;;;;;;1.70;0.80;;;;;;;;;;5088434;28;20208;-82
2022/08/21 12:08:31;;;;;;;3.63;1.10;;;;;;;;;;5088145;28;20214;-82
2022/08/21 12:11:04;;;;;;;0.80;0.80;;;;;;;;;;5068495;28;20255;-82
2022/08/21 12:13:34;;;;;;;8.77;2.47;;;;;;;;;;5070141;28;20210;-82
2022/08/21 12:16:10;;;;;;;2.90;0.83;;;;;;;;;;5091724;28;20223;-82
2022/08/21 12:18:40;;;;;;;0.87;0.70;;;;;;;;;;5077323;28;20190;-82
2022/08/21 12:21:20;;;;;;;1.07;1.00;;;;;;;;;;5094959;28;20202;-83
2022/08/21 12:23:50;;;;;;;4.50;1.47;;;;;;;;;;5095360;28;20201;-82
2022/08/21 12:26:21;;;;;;;0.60;0.60;;;;;;;;;;5071256;28;20222;-82
2022/08/21 12:28:50;;;;;;;1.93;0.87;;;;;;;;;;5057468;28;20207;-82
2022/08/21 12:31:20;;;;;;;0.57;0.57;;;;;;;;;;5057818;28;20193;-82
2022/08/21 12:33:55;;;;;;;2.27;1.20;;;;;;;;;;5088988;28;20228;-82
2022/08/21 12:36:25;;;;;;;2.43;1.30;;;;;;;;;;5083880;28;20232;-82
2022/08/21 12:38:56;;;;;;;6.33;0.87;;;;;;;;;;5076943;28;20197;-82
2022/08/21 12:41:27;;;;;;;2.23;0.80;;;;;;;;;;5067450;28;20214;-82
2022/08/21 12:43:58;;;;;;;0.43;0.43;;;;;;;;;;5061979;28;20194;-82
2022/08/21 12:46:29;;;;;;;0.70;0.67;;;;;;;;;;5094843;28;20237;-82
2022/08/21 12:49:01;;;;;;;2.13;1.17;;;;;;;;;;5070784;28;20211;-82
2022/08/21 12:51:32;;;;;;;2.80;1.43;;;;;;;;;;5066619;28;20204;-82
2022/08/21 12:54:01;;;;;;;0.70;0.70;;;;;;;;;;5073117;28;20189;-82
2022/08/21 12:56:31;;;;;;;3.27;1.40;;;;;;;;;;5088229;28;20222;-83
2022/08/21 12:59:05;;;;;;;4.77;1.20;;;;;;;;;;5077197;28;20210;-82
2022/08/21 13:01:35;;;;;;;3.73;1.20;;;;;;;;;;5063356;28;20197;-82
2022/08/21 13:04:12;;;;;;;1.90;0.80;;;;;;;;;;5094903;28;20201;-82
2022/08/21 13:06:42;;;;;;;6.33;4.37;;;;;;;;;;5093566;28;20225;-82
2022/08/21 13:09:12;;;;;;;0.57;0.57;;;;;;;;;;5076750;28;20199;-82
2022/08/21 13:11:41;;;;;;;1.23;0.80;;;;;;;;;;5094057;28;20285;-82
2022/08/21 13:14:16;;;;;;;4.03;1.10;;;;;;;;;;5094128;28;20267;-83
2022/08/21 13:16:45;;;;;;;0.60;0.60;;;;;;;;;;5076425;28;20226;-82
2022/08/21 13:19:18;;;;;;;0.40;0.40;;;;;;;;;;5074442;28;20203;-82
2022/08/21 13:21:52;;;;;;;1.53;1.43;;;;;;;;;;5066675;28;20210;-82
2022/08/21 13:24:22;;;;;;;2.27;1.10;;;;;;;;;;5073651;28;20211;-82
2022/08/21 13:27:22;;;;;;;0.60;0.60;;;;;;;;;;5094052;28;20260;-82
2022/08/21 13:30:01;;;;;;;2.57;1.33;;;;;;;;;;5082924;28;20261;-82
2022/08/21 13:32:32;;;;;;;1.27;1.17;;;;;;;;;;5076218;28;20204;-82
2022/08/21 13:35:08;;;;;;;2.83;1.47;;;;;;;;;;5094018;28;20219;-82
2022/08/21 13:37:40;;;;;;;2.77;1.37;;;;;;;;;;5074144;28;20202;-82
2022/08/21 13:40:09;;;;;;;2.77;0.80;;;;;;;;;;5076225;28;20202;-82
2022/08/21 13:42:40;;;;;;;1.40;0.80;;;;;;;;;;5062727;28;20195;-82
2022/08/21 13:45:19;;;;;;;2.10;0.93;;;;;;;;;;5075864;28;20195;-83
2022/08/21 13:47:48;;;;;;;1.30;0.87;;;;;;;;;;5076362;28;20203;-83
2022/08/21 13:50:19;;;;;;;5.50;1.03;;;;;;;;;;5062794;28;20257;-82
2022/08/21 13:52:51;;;;;;;1.60;1.37;;;;;;;;;;5076308;28;20209;-83
2022/08/21 13:55:19;;;;;;;1.50;1.40;;;;;;;;;;5093434;28;20216;-83
2022/08/21 13:57:48;;;;;;;0.83;0.80;;;;;;;;;;5064006;28;20206;-83
2022/08/21 14:00:18;;;;;;;2.57;1.80;;;;;;;;;;5068895;28;20204;-83
2022/08/21 14:02:49;;;;;;;1.20;1.20;;;;;;;;;;5086189;28;20203;-83
2022/08/21 14:05:22;;;;;;;0.43;0.43;;;;;;;;;;5086787;28;20194;-83
2022/08/21 14:07:52;;;;;;;2.10;1.13;;;;;;;;;;5057261;28;20200;-82
2022/08/21 14:10:27;;;;;;;0.93;0.90;;;;;;;;;;5067799;28;20196;-83
2022/08/21 14:12:58;;;;;;;1.67;0.80;;;;;;;;;;5071749;28;20208;-83
2022/08/21 14:15:30;;;;;;;4.63;1.53;;;;;;;;;;5093496;28;20311;-83
2022/08/21 14:18:09;;;;;;;2.43;1.10;;;;;;;;;;5075547;28;20203;-83
2022/08/21 14:20:38;;;;;;;5.43;1.70;;;;;;;;;;5072189;28;20203;-83
2022/08/21 14:23:07;;;;;;;1.03;0.90;;;;;;;;;;5093468;28;20208;-82
2022/08/21 14:25:40;;;;;;;1.53;1.43;;;;;;;;;;5093160;28;20207;-82
2022/08/21 14:28:15;;;;;;;0.90;0.90;;;;;;;;;;5063417;28;20192;-81
2022/08/21 14:30:47;;;;;;;3.60;1.03;;;;;;;;;;5062126;28;20236;-81
2022/08/21 14:33:22;;;;;;;1.20;0.93;;;;;;;;;;5075267;28;20228;-81
2022/08/21 14:35:52;;;;;;;1.40;0.90;;;;;;;;;;5061832;28;20222;-81
2022/08/21 14:38:21;;;;;;;0.90;0.87;;;;;;;;;;5072051;28;20228;-82
2022/08/21 14:40:51;;;;;;;5.87;2.03;;;;;;;;;;5070382;28;20200;-81
2022/08/21 14:43:20;;;;;;;1.53;1.30;;;;;;;;;;5085786;28;20204;-81
2022/08/21 14:45:49;;;;;;;2.97;1.33;;;;;;;;;;5079282;28;20222;-81
2022/08/21 14:48:17;;;;;;;3.03;1.70;;;;;;;;;;5074808;28;20208;-82
2022/08/21 14:50:46;;;;;;;2.13;1.00;;;;;;;;;;5071933;28;20216;-81
2022/08/21 14:53:16;;;;;;;3.40;1.20;;;;;;;;;;5069384;28;20207;-81
2022/08/21 14:58:30;;;;;;;2.20;1.10;;;;;;;;;;5072893;28;20194;-81
2022/08/21 15:01:03;;;;;;;2.27;1.07;;;;;;;;;;5064036;28;20327;-81
2022/08/21 15:03:31;;;;;;;0.97;0.90;;;;;;;;;;5073630;28;20206;-81
2022/08/21 15:06:00;;;;;;;6.23;1.03;;;;;;;;;;5074770;28;20251;-81